createdAt,value
2023-02-26T09:41:10.283Z,-14.82
2023-02-26T09:46:21.012Z,-14.64
2023-02-26T09:51:28.026Z,-14.93
2023-02-26T09:56:36.868Z,-14.63
2023-02-26T10:01:44.091Z,-14.40
2023-02-26T10:06:54.173Z,-14.24
2023-02-26T10:12:01.770Z,-14.37
2023-02-26T10:17:08.672Z,-14.25
2023-02-26T10:22:17.590Z,-14.06
2023-02-26T10:27:25.553Z,-13.86
2023-02-26T10:32:31.718Z,-13.95
2023-02-26T10:37:40.129Z,-13.59
2023-02-26T10:42:48.149Z,-13.79
2023-02-26T10:47:55.502Z,-13.81
2023-02-26T10:52:59.151Z,-13.95
2023-02-26T10:58:06.881Z,-13.45
2023-02-26T11:03:15.217Z,-13.19
2023-02-26T11:08:21.804Z,-13.33
2023-02-26T11:13:27.813Z,-13.70
2023-02-26T11:18:33.794Z,-13.98
2023-02-26T11:23:39.869Z,-13.83
2023-02-26T11:28:46.046Z,-13.58
2023-02-26T11:33:50.384Z,-13.30
2023-02-26T11:38:54.874Z,-12.96
2023-02-26T11:44:03.189Z,-12.78
2023-02-26T11:49:06.635Z,-13.33
2023-02-26T11:54:21.613Z,-13.72
2023-02-26T11:59:27.510Z,-13.26
2023-02-26T12:04:32.686Z,-12.98
2023-02-26T12:09:36.069Z,-13.05
2023-02-26T12:14:48.545Z,-13.46
2023-02-26T12:20:01.346Z,-13.41
2023-02-26T12:25:16.656Z,-13.64
2023-02-26T12:30:33.170Z,-13.61
2023-02-26T12:35:54.361Z,-13.60
2023-02-26T12:41:15.316Z,-13.39
2023-02-26T12:46:27.233Z,-13.11
2023-02-26T12:51:36.384Z,-13.36
2023-02-26T12:56:55.373Z,-13.68
2023-02-26T13:02:16.741Z,-13.56
2023-02-26T13:07:28.055Z,-13.39
2023-02-26T13:12:35.598Z,-13.12
2023-02-26T13:17:45.046Z,-13.03
2023-02-26T13:22:53.655Z,-13.44
2023-02-26T13:27:58.252Z,-13.61
2023-02-26T13:33:03.296Z,-13.43
2023-02-26T13:38:14.099Z,-13.32
2023-02-26T13:43:24.925Z,-13.22
2023-02-26T13:48:38.306Z,-13.45
2023-02-26T13:53:49.893Z,-13.39
2023-02-26T13:58:55.327Z,-13.13
2023-02-26T14:04:23.400Z,-13.02
2023-02-26T14:09:55.693Z,-13.20
2023-02-26T14:15:17.853Z,-13.00
2023-02-26T14:20:27.567Z,-13.08
2023-02-26T14:25:34.831Z,-13.59
2023-02-26T14:30:44.037Z,-13.55
2023-02-26T14:35:51.512Z,-13.87
2023-02-26T14:40:57.324Z,-13.95
2023-02-26T14:46:02.539Z,-13.58
2023-02-26T14:51:16.265Z,-13.45
2023-02-26T14:56:24.518Z,-13.31
2023-02-26T15:01:46.088Z,-13.17
2023-02-26T15:07:13.391Z,-13.25
2023-02-26T15:12:35.974Z,-13.26
2023-02-26T15:17:48.788Z,-13.36
2023-02-26T15:22:59.176Z,-13.59
2023-02-26T15:28:06.827Z,-13.78
2023-02-26T15:33:29.384Z,-13.86
2023-02-26T15:38:40.727Z,-13.74
2023-02-26T15:43:47.700Z,-13.82
2023-02-26T15:48:51.064Z,-13.59
2023-02-26T15:53:55.383Z,-13.94
2023-02-26T15:59:02.372Z,-13.96
2023-02-26T16:04:09.139Z,-14.02
2023-02-26T16:09:18.916Z,-14.28
2023-02-26T16:14:25.654Z,-14.44
2023-02-26T16:19:33.188Z,-14.47
2023-02-26T16:24:40.622Z,-14.70
2023-02-26T16:29:51.599Z,-14.76
2023-02-26T16:34:55.993Z,-14.83
2023-02-26T16:40:00.190Z,-14.84
2023-02-26T16:45:16.220Z,-14.99
2023-02-26T16:50:20.898Z,-15.04
2023-02-26T16:55:26.401Z,-15.15
2023-02-26T17:00:31.926Z,-15.08
2023-02-26T17:05:36.795Z,-15.11
2023-02-26T17:10:41.054Z,-15.01
2023-02-26T17:15:47.234Z,-15.05
2023-02-26T17:20:50.801Z,-15.04
2023-02-26T17:25:56.415Z,-15.04
2023-02-26T17:31:04.155Z,-15.09
2023-02-26T17:36:07.794Z,-15.10
2023-02-26T17:41:11.994Z,-15.29
2023-02-26T17:46:17.063Z,-15.44
2023-02-26T17:51:20.523Z,-15.59
2023-02-26T17:56:27.019Z,-15.81
2023-02-26T18:01:31.979Z,-15.68
2023-02-26T18:06:38.688Z,-15.89
2023-02-26T18:11:44.353Z,-16.06
2023-02-26T18:16:49.125Z,-16.12
2023-02-26T18:21:52.506Z,-16.35
2023-02-26T18:26:56.030Z,-16.47
2023-02-26T18:32:03.940Z,-16.57
2023-02-26T18:37:07.808Z,-16.57
2023-02-26T18:42:20.305Z,-16.69
2023-02-26T18:47:28.103Z,-16.80
2023-02-26T18:52:34.626Z,-16.87
2023-02-26T18:57:37.925Z,-17.03
2023-02-26T19:42:24.338Z,-17.12
2023-02-26T19:47:27.820Z,-17.20
2023-02-26T19:52:31.877Z,-17.23
2023-02-26T19:57:37.390Z,-17.37
2023-02-26T20:02:43.051Z,-17.47
2023-02-26T20:07:49.176Z,-17.50
2023-02-26T20:12:54.209Z,-17.51
2023-02-26T20:17:58.718Z,-17.69
2023-02-26T20:23:04.161Z,-17.75
2023-02-26T20:28:12.572Z,-17.88
2023-02-26T20:33:25.156Z,-17.87
2023-02-26T20:38:32.372Z,-17.88
2023-02-26T20:43:38.779Z,-18.02
2023-02-26T20:48:44.265Z,-18.00
2023-02-26T20:53:48.155Z,-17.75
2023-02-26T20:58:53.250Z,-17.71
2023-02-26T21:03:57.138Z,-17.45
2023-02-26T21:09:03.076Z,-17.64
2023-02-26T21:14:09.475Z,-17.64
2023-02-26T21:19:14.825Z,-17.72
2023-02-26T21:24:19.738Z,-17.68
2023-02-26T21:29:25.328Z,-17.66
2023-02-26T21:34:34.070Z,-17.54
2023-02-26T21:39:39.222Z,-17.60
2023-02-26T21:44:48.481Z,-17.59
2023-02-26T21:49:52.261Z,-17.80
2023-02-26T21:54:57.250Z,-17.82
2023-02-26T22:00:06.625Z,-17.84
2023-02-26T22:05:16.130Z,-17.89
2023-02-26T22:10:20.039Z,-17.97
2023-02-26T22:15:26.978Z,-18.00
2023-02-26T22:20:31.132Z,-18.04
2023-02-26T22:25:34.708Z,-18.13
2023-02-26T22:30:44.741Z,-18.23
2023-02-26T22:35:48.797Z,-18.32
2023-02-26T22:40:54.105Z,-18.35
2023-02-26T22:45:59.638Z,-18.32
